Tropical Cyclones
[Index]
Main Index Home Page Stock Weather Photos Extreme Storms Discussion Storm News and Storm Chasing Reports Tropical Cyclones / Hurricanes / Typhoons Weather Data and Links Wild Fires / Bushfires Weather Observation Techniques Weather Picture Catalogue Tornado Pictures and Reports Stock Video Footage and DVDs for sale
Season 2017-2018 Tropical Cyclone MARCUS Track Map
Season 2017-2018 Summaries: [BoM-AU] [JTWC-AU] [JTWC-SIO] [JTWC-SPAC] [JTWC-SH]
<<- Previous TC | JTWC 2017-2018 Season | Next TC ->>

click for intensity scale information  Lat/long Grid: Show Hide

 Date Labels: Show Hide

Joint Typhoon Warning Centre Cyclone Data

Name: MARCUS

14 Mar 2018 18:00 UTC to 25 Mar 2018 00:00 UTC

    date/time    lat    long     hPa   cat  kts
2018-03-14 18    9.1   129.9    1007         25          
2018-03-15 00    9.1   130.6    1007         25          
2018-03-15 06    9.2   131.3    1006         30          
2018-03-15 12    9.3   132.0    1004         35          
2018-03-15 18    9.8   132.4     999    1    45          
2018-03-16 00   10.3   132.5     996    1    50          
2018-03-16 06   10.9   132.3     996    1    50          
2018-03-16 12   11.3   132.0     995    1    50          
2018-03-16 18   11.7   131.7     992    2    55          
2018-03-17 00   12.4   131.0     989    2    60          
2018-03-17 06   13.0   130.1     995    1    50          
2018-03-17 12   13.5   129.4     993    2    55          
2018-03-17 18   13.9   128.7     986    2    65          
2018-03-17 18   13.9   128.7     986    2    65          
2018-03-18 00   14.3   127.8     984    2    70          
2018-03-18 00   14.3   127.8     984    2    70          
2018-03-18 06   14.6   126.6     989    2    60          
2018-03-18 06   14.6   126.6     989    2    60          
2018-03-18 12   14.8   125.4     992    2    55          
2018-03-18 18   14.9   124.2     988    2    65          
2018-03-18 18   14.9   124.2     988    2    65          
2018-03-19 00   14.9   123.5     985    2    70          
2018-03-19 00   14.9   123.5     985    2    70          
2018-03-19 00   14.9   123.5     985    2    70          
2018-03-19 06   15.4   122.6     972    3    85          
2018-03-19 06   15.4   122.6     972    3    85          
2018-03-19 06   15.4   122.6     972    3    85          
2018-03-19 12   15.5   121.2     963    3    95          
2018-03-19 12   15.5   121.2     963    3    95          
2018-03-19 12   15.5   121.2     963    3    95          
2018-03-19 18   15.1   119.8     960    4   100          
2018-03-19 18   15.1   119.8     960    4   100          
2018-03-19 18   15.1   119.8     960    4   100          
2018-03-20 00   15.1   118.4     959    4   100          
2018-03-20 00   15.1   118.4     959    4   100          
2018-03-20 00   15.1   118.4     959    4   100          
2018-03-20 06   14.6   116.9     957    4   105          
2018-03-20 06   14.6   116.9     957    4   105          
2018-03-20 06   14.6   116.9     957    4   105          
2018-03-20 12   14.5   115.3     947    4   115          
2018-03-20 12   14.5   115.3     947    4   115          
2018-03-20 12   14.5   115.3     947    4   115          
2018-03-20 18   14.5   113.7     941    4   120          
2018-03-20 18   14.5   113.7     941    4   120          
2018-03-20 18   14.5   113.7     941    4   120          
2018-03-21 00   14.4   112.3     935    5   125          
2018-03-21 00   14.4   112.3     935    5   125          
2018-03-21 00   14.4   112.3     935    5   125          
2018-03-21 06   14.7   110.9     930    5   130          
2018-03-21 06   14.7   110.9     930    5   130          
2018-03-21 06   14.7   110.9     930    5   130          
2018-03-21 12   15.0   109.6     918    5   140          
2018-03-21 12   15.0   109.6     918    5   140          
2018-03-21 12   15.0   109.6     918    5   140          
2018-03-21 18   15.5   108.3     906    5   150          
2018-03-21 18   15.5   108.3     906    5   150          
2018-03-21 18   15.5   108.3     906    5   150          
2018-03-22 00   15.9   107.4     917    5   140          
2018-03-22 00   15.9   107.4     917    5   140          
2018-03-22 00   15.9   107.4     917    5   140          
2018-03-22 06   16.6   106.6     922    5   135          
2018-03-22 06   16.6   106.6     922    5   135          
2018-03-22 06   16.6   106.6     922    5   135          
2018-03-22 12   17.6   106.3     932    5   125          
2018-03-22 12   17.6   106.3     932    5   125          
2018-03-22 12   17.6   106.3     932    5   125          
2018-03-22 18   18.7   106.0     943    4   115          
2018-03-22 18   18.7   106.0     943    4   115          
2018-03-22 18   18.7   106.0     943    4   115          
2018-03-23 00   19.9   105.8     951    4   105          
2018-03-23 00   19.9   105.8     951    4   105          
2018-03-23 00   19.9   105.8     951    4   105          
2018-03-23 06   21.3   105.7     958    3    95          
2018-03-23 06   21.3   105.7     958    3    95          
2018-03-23 06   21.3   105.7     958    3    95          
2018-03-23 12   22.2   106.0     968    3    80          
2018-03-23 12   22.2   106.0     968    3    80          
2018-03-23 12   22.2   106.0     968    3    80          
2018-03-23 18   23.7   106.6     975    2    70          
2018-03-23 18   23.7   106.6     975    2    70          
2018-03-24 00   25.3   107.3     981    2    60          
2018-03-24 00   25.3   107.3     981    2    60          
2018-03-24 06   26.8   107.6     983    1    50          
2018-03-24 12   27.3   107.7     990    1    45          
2018-03-24 18   28.2   108.1     996         35          
2018-03-25 00   28.8   108.4     999         30          
Winds are 1-min average.

Tropical cyclone tracks developed by Michael Bath using data from the Joint Typhoon Warning Centre Best Tracks and Google Maps.


[Australian Severe Weather index] [Copyright Notice] [Email Contacts] [Search This Site] [Privacy Policy]
Document: tropical_cyclone_marcus.htm Updated: 12 March 2020